Flight Track Log - Related Links

Times and Time Zones

All times are in EDT time to prevent confusion due to time zone crossing. See the N449ND flight status page for this flight to view local times or setup timezone preferences in your user account.

Time Position Orientation Groundspeed Altitude Reporting Facility
EDT Latitude Longitude Course Direction KTS MPH feet Rate Location/Type
Sat 08:40:49 PM 26.1033 -80.1308 352° North 98 113 1,200  Level Miami Center
Sat 08:41:14 PM 26.1125 -80.1325 351° North 94 108 1,300 448 Climbing Miami Center
Sat 08:41:56 PM 26.1300 -80.1375 346° North 85 98 1,700 492 Climbing Miami Center
Sat 08:42:15 PM 26.1364 -80.1392 347° North 92 106 1,800 545 Climbing Miami Center
Sat 08:42:51 PM 26.1528 -80.1439 345° North 88 101 2,200 590 Climbing Miami Center
Sat 08:43:16 PM 26.1600 -80.1453 350° North 91 105 2,400 500 Climbing Miami Center
Sat 08:43:39 PM 26.1711 -80.1500 339° North 89 102 2,600 492 Climbing Miami Center
Sat 08:44:17 PM 26.1819 -80.1528 347° North 83 96 2,900 492 Climbing Miami Center
Sat 08:44:40 PM 26.1939 -80.1564 345° North 83 96 3,100 393 Climbing Miami Center
Sat 08:45:00 PM 26.2835 -80.1833 352° North  Level FlightAware Approximate
Sat 08:45:18 PM 26.2047 -80.1589 348° North 85 98 3,300  Level Miami Center
Sat 08:45:47 PM 26.2183 -80.1653 337° Northwest 84 97 3,600 492 Climbing Miami Center
Sat 08:46:00 PM 26.3196 -80.1894 352° North  Level FlightAware Approximate
Sat 08:46:19 PM 26.2278 -80.1650 North 85 98 3,800  Level Miami Center
Sat 08:46:48 PM 26.2414 -80.1669 353° North 83 96 4,100 492 Climbing Miami Center
Sat 08:47:20 PM 26.2550 -80.1683 355° North 84 97 4,300 448 Climbing Miami Center
Sat 08:47:55 PM 26.2683 -80.1714 348° North 86 99 4,600 393 Climbing Miami Center
Sat 08:48:21 PM 26.2775 -80.1725 354° North 84 97 4,700 295 Climbing Miami Center
Sat 08:48:56 PM 26.2911 -80.1753 350° North 84 97 4,900 393 Climbing Miami Center
Sat 08:49:22 PM 26.3025 -80.1789 344° North 84 97 5,100 419 Climbing Miami Center
Sat 08:50:22 PM 26.3267 -80.1847 348° North 86 99 5,500 298 Climbing Miami Center
Sat 08:51:23 PM 26.3525 -80.1847 360° North 94 108 5,700 49 Climbing Miami Center
Sat 08:52:24 PM 26.3839 -80.1844 360° North 113 130 5,600 -98 Descending Miami Center
Sat 08:53:25 PM 26.4156 -80.1864 357° North 116 133 5,500  Descending Miami Center
Sat 08:54:26 PM 26.4442 -80.1908 352° North 105 121 5,600 49 Climbing Miami Center
Sat 08:55:27 PM 26.4756 -80.1983 348° North 110 127 5,600  Level Miami Center
Sat 08:56:28 PM 26.5042 -80.2050 348° North 107 123 5,600  Level Miami Center
Sat 08:57:29 PM 26.5336 -80.2103 351° North 110 127 5,600 -50 Level Miami Center
Sat 08:58:29 PM 26.5631 -80.2192 345° North 108 124 5,500 -50 Descending Miami Center
Sat 08:59:30 PM 26.5928 -80.2231 353° North 107 123 5,500  Level Miami Center
Sat 09:00:31 PM 26.6239 -80.2236 359° North 104 120 5,500  Level Miami Center
Sat 09:01:32 PM 26.6500 -80.2125 21° North 101 116 5,500  Level Miami Center
Sat 09:02:33 PM 26.6794 -80.2236 341° North 108 124 5,500 148 Level Miami Center
Sat 09:03:34 PM 26.7078 -80.2328 344° North 108 124 5,800 298 Climbing Miami Center
Sat 09:04:34 PM 26.7325 -80.2367 352° North 94 108 6,100 347 Climbing Miami Center
Sat 09:05:35 PM 26.7581 -80.2439 346° North 93 107 6,500 246 Climbing Miami Center
Sat 09:06:36 PM 26.7856 -80.2494 350° North 93 107 6,600  Climbing Miami Center
Sat 09:07:37 PM 26.8161 -80.2564 349° North 111 128 6,500  Descending Miami Center
Sat 09:08:38 PM 26.8417 -80.2367 35° Northeast 118 136 6,600 49 Climbing Miami Center
Sat 09:09:39 PM 26.8711 -80.2431 349° North 113 130 6,600 -50 Level Miami Center
Sat 09:10:39 PM 26.9044 -80.2542 343° North 118 136 6,500  Descending Miami Center
Sat 09:11:40 PM 26.9317 -80.2636 343° North 109 125 6,600 49 Climbing Miami Center
Sat 09:12:41 PM 26.9600 -80.2736 343° North 104 120 6,600  Level Miami Center
Sat 09:13:42 PM 26.9892 -80.2889 335° Northwest 107 123 6,600 -49 Level Miami Center
Sat 09:14:43 PM 27.0172 -80.3003 340° North 109 125 6,500 -49 Descending Miami Center
Sat 09:15:44 PM 27.0475 -80.3122 341° North 111 128 6,500 50 Level Miami Center
Sat 09:16:44 PM 27.0781 -80.3161 354° North 107 123 6,600  Climbing Miami Center
Sat 09:17:45 PM 27.1081 -80.3236 347° North 108 124 6,500 -49 Descending Miami Center
Sat 09:18:46 PM 27.1403 -80.3308 349° North 112 129 6,500 -246 Level Miami Center
Sat 09:19:47 PM 27.1703 -80.3331 356° North 112 129 6,000 -1,033 Descending Miami Center
Sat 09:20:48 PM 27.2061 -80.3389 352° North 122 140 4,400 -1,574 Descending Miami Center
Sat 09:21:49 PM 27.2425 -80.3403 358° North 122 140 2,800 -1,574 Descending Miami Center

Login

Don't have an account? Register now (free) for customized features, flight alerts, and more!